Timeline UpdatesTrip UpdatesNews PostsPvt PostsTravel TipsAdmin PostsConv PostsFollowed PostsChat RequestsBlog PostsPNR Posts

Disclaimer
Search
 
 
Sun Apr 20, 2014 07:13:46 ISTHomeTrainsΣChainsAtlasPNRForumGalleryNewsFAQTripsMembersLoginFeedback
No Recent News for this Train
Other Trains in the News **new
Latest...
...
Tue Nov 19, 2013 (01:06PM)
⇐ Return Journey: Train# 17406

17405/Krishna Express

Jul 17 2013 (10:50PM)
Change Departure Station:
Change Arrival Station:
Post a Train Travel TipPost a Train Travel Tip **new
Post a Comment/Question/Picture/VideoPost a Comment/Question/Picture/Video
Inaugural Run
Wed Oct 02, 1974
Pantry/Catering
✕ NO Pantry Car
✓ Catering Avbl
Loco/Rake Reversals
MUE/Mudkhed Junction (4); SC/Secunderabad Junction (10);
RSA - Rake Sharing
17405/17406/17409/17410 has RSA.
Rake/Coach Composition
LOCO-SLR-UR-UR-UR-UR-UR-B1-C1-S1-S2-D1-D2-D3-D4-D5-D6-UR-UR-SLR
Loco
TPTY - SC: LGD WAP4/7. SC - ADB: KZJ WDG-3A.
News    PNR    Forum    Time-Table    Availability    Fare Chart    Map    Arr/Dep History    Trips    Gallery    ΣChains    X/O    Timeline    
Travel Time: 2h 33m    6 halts    Distance: 84 km    Avg Speed: 32 km/hr
Type: Mail/Express
Zone: SCR/South Central
Departs @ 18:07 (Avg 1h 6m late)
Platform# 1
SMTWTFS
Jangaon/ZN 
Arrives @ 20:40 (Avg 40m late)
Platform# 6
SMTWTFS
Secunderabad Junction/SC 

6 halts. 11 intermediate Stations between Jangaon and Secunderabad Junction

Show ALL intermediate Stations  

#CodeStation NameX/OArrivesAvgDepartsAvgHaltPFDay#KmSpeedElevZoneAddress
1TPTYTirupati Main (5)  -05:25+1011-652.840150mSCRChittoor Distt, Andhra Pradesh
2RURenigunta Junction (5)X  05:40+1705:42+202m--1-642.963113mSCRChittoor District, Andhra Pradesh
3KHTSri Kalahasti (2)  06:04+2206:05+221m21-619.88268mSCRChittoor District, Andhra Pradesh
4VKIVenkatagiri (3)  06:23+2406:24+241m11-595.37677mSCRNellore District, Andhra Pradesh
5VDDVendodu (2)X  06:37+2706:38+271m--1-578.81955mSCRNellore, Andhra Pradesh
6GDRGudur Junction (3)X  07:40+1507:42+162m21-559.59419mSCRGudur, Andhra Pradesh
7VDEVedayapalem (2)X  08:02+2508:03+261m11-528.37327mSCRNellore, Andhra Pradesh
8NLRNellore (4)  08:09+2908:11+292m21-521.17921mSCRNellore, Andhra Pradesh
9BTTRBitragunta (2)  08:37+3408:38+361m11-486.87015mSCRBitragunta, Andhra Pradesh
10KVZKavali (4)X  08:52+3808:53+401m31-470.39421mSCRKavali, Andhra Pradesh
11SKMSingarayakonda (3)X  09:17+4309:18+441m11-432.57226mSCRSingarayakonda, Andhra Pradesh
12TNRTanguturu (2)X  09:26+4509:27+461m--1-422.93710mSCRTanguturu, Andhra Pradesh
13OGLOngole (3)  09:57+3609:58+381m11-404.36412mSCROngole ph.no . 08592-280202, Andhra Pradesh
14ANBAmmanabrolu (3)O  10:12+4010:13+411m--1-389.47716mSCRAmmanabrolu, Andhra Pradesh
15CJMChinnaganjam (3)XO  10:24+4310:25+431m--1-375.3839mSCRChinna Ganjam, Andhra Pradesh
16VTMVetapalem (3)XO  10:34+4510:35+461m--1-362.8798mSCRVetapalem, Andhra Pradesh
17CLXChirala (4)  10:41+4910:42+501m--1-355.0828mSCRChirala, Andhra Pradesh
18BPPBapatla (3)  10:53+5110:54+511m--1-339.94610mSCRBapatla, Andhra Pradesh
19NDONidubrolu (3)X  11:21+4411:22+451m--1-319.3519mSCRNidubrolu, Andhra Pradesh
20TELTenali Junction (5)  11:48+3411:50+342m41-297.36516mSCRTel: 08644-227834, Andhra Pradesh
21DIGDuggirala (2)  11:59+3412:00+341m--1-287.68316mSCRDuggirala, Andhra Pradesh
22PVDPeddavadiapudi (2)XO  12:07+2412:08+241m--1-277.91120mSCRKL University to NH 5, Andhra Pradesh
23BZAVijayawada Junction (10)X  13:15+1513:30+1515m101-266.04224mSCRVijayawada 520001, Andhra Pradesh
24KIKondapalli (2)  13:52+1913:53+191m11-250.56735mSCRKondapalli, Andhra Pradesh
25YPErrupalem (2)X  14:15+3114:16+311m--1-225.97757mSCRYerrupalem, Andhra Pradesh
26MDRMadhira (2)X  14:28+3414:29+341m21-210.58561mSCRK.Ponnavaram, Andhra Pradesh
27BKLBona Kalu (2)  14:41+4014:42+411m21-193.513997mSCRBonakalu, Andhra Pradesh
28KMTKhammam (2)  14:54+5014:56+502m21-165.749118mSCRKhammam 507001, Andhra Pradesh
29DKJDornakal Junction (3)X  15:24+4315:25+451m11-142.657153mSCRWarangal District, Andhra Pradesh
30GLAGarla (2)  15:30+4815:31+481m21-137.974156mSCRKhammam dt, Andhra Pradesh
31MABDMahbubabad (2)  15:47+4815:48+491m21-118.281200mSCRMahbubabad, Andhra Pradesh
32KDMKesamudram (2)  15:59+5216:00+531m21-103.377223mSCRKesamudram. Ph : 08719 - 250360, Andhra Pradesh
33NKDNekonda (2)  16:12+5516:13+561m21-87.842236mSCRNekkonda. Ph : 08718 - 221290, Andhra Pradesh
34WLWarangal (3)  16:55+4716:57+492m31-58.129271mSCRWarangal., Andhra Pradesh
35KZJKazipet Junction (3)X  17:18+4817:20+562m31-47.957292mSCRKazipet, Andhra Pradesh
36GNPGhanpur (2)X  17:41+1:0017:42+1:001m11-28.167344mSCRWarangal / Enq Ph : 08711 220231, Andhra Pradesh
37RGPRaghunathpalli (2)O  17:57+1:0117:58+1:011m11-11.385357mSCRRaghunathpalli, Andhra Pradesh
38ZN»Jangaon (2)»  18:06+1:0518:07+1:061m110.055380mSCRRly Stn Rd. Jangaon, Andhra Pradesh
39PBPPembarti (2)  18:13+1:0718:14+1:081m115.564382mSCRPembarti, Andhra Pradesh
40ALERAler (2)X  18:23+1:0818:24+1:091m1115.040366mSCRAleru, Andhra Pradesh
41RAGRaigir (2)  18:48+5918:49+591m1130.865415mSCRNalgonda, Andhra Pradesh
42BGBhongir (3)X  18:55+5318:56+531m2137.370455mSCRBhongir, Andhra Pradesh
43CHZCharlapalli (2)X  19:25+5319:26+531m1171.344523mSCRCherlapalli, Andhra Pradesh
44MLYMoula Ali (2)O  19:35+1:0019:36+1:001m2178.05520mSCRSecunderabad, Andhra Pradesh
45SC•Secunderabad Junction (10)•XO20:40+4021:10+2530m6183.715539mSCRSecunderabad 500003, Andhra Pradesh
46MJFMalkajgiri (3)  21:24+4021:25+401m3187.138535mSCRSecunderabad, Andhra Pradesh
47BMOBolarum (3)  21:41+4021:42+421m2197.375597mSCRSecunderabad, Andhra Pradesh
48MZLMirzapalli (1)  22:29+4522:30+451m11155.981530mSCRMedak, Andhra Pradesh
49AKEAkanapet  22:38+4622:39+461m--1166.773566mSCR, Andhra Pradesh
50KMCKamareddi (3)  23:00+4923:02+492m--1192.553528mSCRKamareddi, Andhra Pradesh
51NZBNizamabad (3)  00:01+3600:05+394m12244.370384mSCRNizamabad, Andhra Pradesh
52BSXBasar (2)  00:30+4100:32+422m12273.766358mSCRDist Adilabad, Andhra Pradesh
53DABDharmabad (2)  00:41+4200:42+461m22283.571354mSCRDegaon, Maharashtra
54UMRIUmriXO  01:07+4801:08+491m12313.014381mSCRNanded, Maharashtra
55MUEMudkhed Junction (4)X02:30+3602:40+4710m12332.567378mSCRMudkhed, Maharashtra
56BOKRBhokar  02:59+5003:00+511m12353.656460mSCRBhokar, Maharashtra
57HEMHimayatnagar  03:39+4803:40+481m--2389.867398mSCRNanded, Maharashtra
58SHSKSahasrakund  03:54+5003:55+521m--2405.375402mSCRNanded, Maharashtra
59BHBKBodhadi Bujrug  04:19+5804:20+1:041m--2435.463357mSCRKinwat, Maharashtra
60KNVTKinwat (2)X  04:34+1:0304:35+1:041m12450.127319mSCRKinwat, Maharashtra
61ADBAdilabad (3)  06:15+11-12495.4-248mSCRAdilabad, Andhra Pradesh
Scroll to Top
Scroll to Bottom